createdAt,value
2022-09-14T00:00:39.602Z,12.00
2022-09-14T00:03:09.960Z,12.30
2022-09-14T00:05:40.462Z,12.40
2022-09-14T00:08:10.854Z,12.60
2022-09-14T00:10:46.369Z,12.80
2022-09-14T00:13:18.107Z,13.00
2022-09-14T00:15:48.313Z,13.20
2022-09-14T00:18:18.541Z,13.30
2022-09-14T00:20:49.197Z,13.40
2022-09-14T00:23:19.441Z,13.50
2022-09-14T00:25:49.877Z,13.70
2022-09-14T00:28:20.284Z,13.80
2022-09-14T00:30:50.956Z,13.90
2022-09-14T00:33:21.208Z,14.00
2022-09-14T00:35:51.455Z,14.10
2022-09-14T00:38:29.307Z,14.20
2022-09-14T00:41:01.662Z,14.20
2022-09-14T00:43:31.915Z,14.30
2022-09-14T00:46:05.082Z,14.40
2022-09-14T00:48:35.604Z,14.50
2022-09-14T00:51:05.845Z,14.60
2022-09-14T00:53:38.447Z,14.70
2022-09-14T00:56:09.179Z,14.80
2022-09-14T00:58:40.330Z,14.80
2022-09-14T01:01:12.124Z,15.00
2022-09-14T01:03:42.300Z,15.10
2022-09-14T01:06:22.331Z,15.20
2022-09-14T01:09:11.232Z,15.40
2022-09-14T01:12:05.259Z,15.60
2022-09-14T01:14:53.181Z,15.70
2022-09-14T01:17:44.601Z,15.50
2022-09-14T01:20:41.097Z,15.50
2022-09-14T01:23:20.816Z,15.60
2022-09-14T01:26:00.304Z,15.80
2022-09-14T01:28:42.573Z,15.90
2022-09-14T01:31:23.623Z,15.70
2022-09-14T01:34:22.004Z,15.50
2022-09-14T01:36:58.531Z,15.30
2022-09-14T01:39:33.439Z,15.10
2022-09-14T01:42:04.807Z,14.80
2022-09-14T01:44:39.870Z,14.70
2022-09-14T01:47:22.633Z,14.70
2022-09-14T01:50:00.626Z,14.80
2022-09-14T01:52:44.224Z,14.90
2022-09-14T01:55:22.597Z,15.30
2022-09-14T01:58:11.393Z,15.60
2022-09-14T02:00:47.528Z,15.90
2022-09-14T02:03:24.073Z,16.00
2022-09-14T02:06:23.283Z,16.00
2022-09-14T02:08:56.458Z,16.00
2022-09-14T02:11:28.049Z,16.10
2022-09-14T02:13:59.408Z,16.20
2022-09-14T02:16:31.325Z,16.20
2022-09-14T02:19:03.360Z,16.10
2022-09-14T02:21:35.610Z,16.00
2022-09-14T02:24:07.688Z,16.00
2022-09-14T02:26:40.177Z,16.10
2022-09-14T02:29:10.701Z,16.10
2022-09-14T02:32:02.897Z,16.00
2022-09-14T02:34:55.127Z,15.90
2022-09-14T02:38:03.150Z,15.80
2022-09-14T02:41:02.288Z,15.80
2022-09-14T02:43:51.886Z,15.90
2022-09-14T02:46:39.855Z,15.80
2022-09-14T02:49:28.507Z,15.60
2022-09-14T02:52:10.682Z,15.60
2022-09-14T02:55:02.982Z,15.60
2022-09-14T02:57:33.723Z,15.60
2022-09-14T03:00:05.709Z,15.70
2022-09-14T03:02:36.172Z,15.80
2022-09-14T03:05:07.950Z,15.90
2022-09-14T03:07:38.575Z,16.00
2022-09-14T03:10:09.514Z,16.10
2022-09-14T03:12:41.960Z,16.10
2022-09-14T03:15:15.083Z,16.20
2022-09-14T03:17:50.770Z,16.30
2022-09-14T03:20:27.005Z,16.40
2022-09-14T03:22:57.467Z,16.50
2022-09-14T03:25:29.630Z,16.50
2022-09-14T03:28:01.713Z,16.50
2022-09-14T03:30:31.910Z,16.50
2022-09-14T03:33:02.977Z,16.50
2022-09-14T03:35:34.537Z,16.50
2022-09-14T03:38:05.112Z,16.50
2022-09-14T03:40:35.619Z,16.60
2022-09-14T03:43:06.079Z,16.50
2022-09-14T03:45:38.620Z,16.50
2022-09-14T03:48:09.215Z,16.50
2022-09-14T03:50:40.660Z,16.30
2022-09-14T03:53:11.042Z,16.30
2022-09-14T03:55:43.434Z,16.30
2022-09-14T03:58:13.588Z,16.30
2022-09-14T04:00:43.782Z,16.40
2022-09-14T04:03:14.424Z,16.40
2022-09-14T04:05:45.277Z,16.40
2022-09-14T04:08:16.270Z,16.40
2022-09-14T04:10:46.880Z,16.40
2022-09-14T04:13:17.141Z,16.40
2022-09-14T04:15:47.400Z,16.40
2022-09-14T04:18:17.607Z,16.40
2022-09-14T04:20:48.148Z,16.40
2022-09-14T04:23:19.092Z,16.30
2022-09-14T04:25:49.359Z,16.30
2022-09-14T04:28:20.780Z,16.30
2022-09-14T04:31:06.485Z,16.30
2022-09-14T04:33:39.401Z,16.20
2022-09-14T04:36:17.168Z,16.10
2022-09-14T04:38:47.979Z,16.00
2022-09-14T04:41:22.676Z,16.00
2022-09-14T04:43:54.076Z,16.00
2022-09-14T04:46:27.684Z,16.00
2022-09-14T04:48:58.314Z,15.90
2022-09-14T04:51:31.256Z,15.90
2022-09-14T04:54:04.719Z,15.90
2022-09-14T04:56:39.990Z,16.00
2022-09-14T04:59:10.917Z,16.00
2022-09-14T05:01:46.285Z,16.00
2022-09-14T05:04:16.689Z,16.00
2022-09-14T05:06:47.990Z,15.90
2022-09-14T05:09:22.105Z,15.90
2022-09-14T05:11:53.485Z,15.90
2022-09-14T05:14:23.734Z,15.90
2022-09-14T05:16:53.988Z,15.90
2022-09-14T05:19:24.306Z,15.90
2022-09-14T05:21:54.469Z,16.00
2022-09-14T05:24:25.087Z,15.90
2022-09-14T05:27:00.090Z,16.00
2022-09-14T05:29:32.596Z,15.90
2022-09-14T05:32:02.834Z,15.90
2022-09-14T05:34:33.440Z,15.80
2022-09-14T05:37:03.655Z,15.80
2022-09-14T05:39:33.816Z,15.70
2022-09-14T05:42:04.038Z,15.60
2022-09-14T05:44:34.286Z,15.60
2022-09-14T05:47:05.569Z,15.50
2022-09-14T05:49:35.792Z,15.50
2022-09-14T05:52:06.117Z,15.50
2022-09-14T05:54:36.869Z,15.50
2022-09-14T05:57:07.217Z,15.40
2022-09-14T05:59:37.605Z,15.40
2022-09-14T06:02:07.843Z,15.30
2022-09-14T06:04:38.059Z,15.20
2022-09-14T06:07:18.488Z,15.20
2022-09-14T06:09:49.514Z,15.10
2022-09-14T06:12:21.445Z,15.10
2022-09-14T06:14:51.759Z,15.00
2022-09-14T06:17:21.916Z,14.90
2022-09-14T06:19:52.740Z,14.90
2022-09-14T06:22:22.980Z,14.90
2022-09-14T06:24:53.158Z,14.80
2022-09-14T06:27:23.795Z,14.80
2022-09-14T06:29:55.569Z,14.80
2022-09-14T06:32:25.932Z,14.80
2022-09-14T06:34:58.812Z,14.70
2022-09-14T06:37:29.352Z,14.70
2022-09-14T06:39:59.643Z,14.60
2022-09-14T06:42:33.067Z,14.60
2022-09-14T06:45:03.235Z,14.50
2022-09-14T06:47:37.363Z,14.50
2022-09-14T06:50:08.192Z,14.40
2022-09-14T06:52:41.813Z,14.40
2022-09-14T06:55:12.142Z,14.30
2022-09-14T06:57:43.216Z,14.30
2022-09-14T07:00:14.110Z,14.20
2022-09-14T07:02:44.646Z,14.10
2022-09-14T07:05:17.704Z,14.10
2022-09-14T07:07:48.104Z,14.00
2022-09-14T07:10:18.933Z,13.90
2022-09-14T07:12:50.196Z,13.90
2022-09-14T07:15:20.495Z,13.80
2022-09-14T07:17:51.343Z,13.80
2022-09-14T07:20:22.078Z,13.70
2022-09-14T07:22:52.712Z,13.70
2022-09-14T07:25:23.007Z,13.60
2022-09-14T07:27:53.204Z,13.50
2022-09-14T07:30:25.752Z,13.50
2022-09-14T07:32:58.952Z,13.40
2022-09-14T07:35:29.383Z,13.40
2022-09-14T07:38:00.121Z,13.30
2022-09-14T07:40:34.779Z,13.20
2022-09-14T07:43:04.966Z,13.20
2022-09-14T07:45:37.308Z,13.10
2022-09-14T07:48:08.308Z,13.00
2022-09-14T07:50:38.550Z,12.90
2022-09-14T07:53:09.321Z,12.90
2022-09-14T07:55:42.361Z,12.80
2022-09-14T07:58:12.543Z,12.70
2022-09-14T08:00:43.317Z,12.60
2022-09-14T08:03:13.513Z,12.50
2022-09-14T08:05:44.272Z,12.40
2022-09-14T08:08:15.305Z,12.30
2022-09-14T08:10:45.523Z,12.20
2022-09-14T08:13:16.814Z,12.10
2022-09-14T08:15:47.623Z,12.10
2022-09-14T08:18:18.127Z,12.00
2022-09-14T08:20:48.667Z,12.00
2022-09-14T08:23:18.891Z,11.90
2022-09-14T08:25:49.750Z,11.80
2022-09-14T08:28:20.677Z,11.80
2022-09-14T08:30:50.977Z,11.70
2022-09-14T08:33:21.457Z,11.60
2022-09-14T08:35:57.873Z,11.50
2022-09-14T08:38:33.466Z,11.50
2022-09-14T08:41:14.145Z,11.40
2022-09-14T08:43:44.436Z,11.30
2022-09-14T08:46:28.371Z,11.30
2022-09-14T08:48:59.824Z,11.20
2022-09-14T08:51:30.458Z,11.10
2022-09-14T08:54:01.529Z,11.10
2022-09-14T08:56:44.005Z,11.10
2022-09-14T08:59:43.091Z,11.00
2022-09-14T09:02:34.679Z,10.90
2022-09-14T09:05:29.767Z,10.90
2022-09-14T09:08:41.480Z,10.80
2022-09-14T09:11:20.346Z,10.70
2022-09-14T09:13:53.013Z,10.70
2022-09-14T09:16:27.048Z,10.70
2022-09-14T09:19:05.318Z,10.60
2022-09-14T09:21:42.318Z,10.60
2022-09-14T09:24:24.003Z,10.60
2022-09-14T09:26:55.058Z,10.50
2022-09-14T09:29:26.787Z,10.50
2022-09-14T09:32:01.249Z,10.50
2022-09-14T09:34:32.871Z,10.40
2022-09-14T09:37:03.127Z,10.40
2022-09-14T09:39:35.814Z,10.30
2022-09-14T09:43:01.070Z,10.30
2022-09-14T09:45:50.587Z,10.30
2022-09-14T09:48:25.059Z,10.50
2022-09-14T09:51:07.741Z,10.60
2022-09-14T09:53:48.822Z,10.70
2022-09-14T09:56:56.206Z,10.70
2022-09-14T09:59:41.365Z,10.80
2022-09-14T10:02:35.518Z,10.80
2022-09-14T10:05:10.201Z,10.80
2022-09-14T10:07:42.538Z,10.80
2022-09-14T10:10:16.064Z,10.80
2022-09-14T10:12:51.838Z,10.80
2022-09-14T10:15:29.447Z,10.70
2022-09-14T10:18:10.839Z,10.70
2022-09-14T10:21:01.026Z,10.70
2022-09-14T10:23:35.512Z,10.70
2022-09-14T10:26:21.531Z,10.70
2022-09-14T10:28:53.731Z,10.70
2022-09-14T10:31:48.385Z,10.70
2022-09-14T10:34:22.872Z,10.70
2022-09-14T10:37:07.332Z,10.70
2022-09-14T10:39:54.853Z,10.60
2022-09-14T10:42:59.903Z,10.60
2022-09-14T10:45:40.753Z,10.60
2022-09-14T10:48:33.078Z,10.60
2022-09-14T10:51:03.845Z,10.50
2022-09-14T10:57:11.466Z,10.50
2022-09-14T11:00:06.555Z,10.50
2022-09-14T11:02:53.347Z,10.50
2022-09-14T11:05:45.540Z,10.40
2022-09-14T11:08:31.510Z,10.50
2022-09-14T11:11:25.827Z,10.50
2022-09-14T11:14:01.868Z,10.40
2022-09-14T11:17:00.682Z,10.50
2022-09-14T11:19:50.975Z,10.40
2022-09-14T11:22:24.855Z,10.40
2022-09-14T11:25:24.077Z,10.40
2022-09-14T11:28:04.399Z,10.30
2022-09-14T11:30:44.922Z,10.30
2022-09-14T11:33:18.108Z,10.30
2022-09-14T11:36:01.443Z,10.30
2022-09-14T11:38:37.176Z,10.30
2022-09-14T11:41:33.582Z,10.30
2022-09-14T11:44:39.777Z,10.30
2022-09-14T11:47:17.985Z,10.20
2022-09-14T11:50:25.011Z,10.20
2022-09-14T11:53:19.952Z,10.10
2022-09-14T11:55:52.907Z,10.20
2022-09-14T11:58:26.452Z,10.20
2022-09-14T12:01:06.708Z,10.20
2022-09-14T12:03:56.673Z,10.20
2022-09-14T12:06:39.146Z,10.20
2022-09-14T12:09:26.432Z,10.10
2022-09-14T12:12:00.692Z,10.10
2022-09-14T12:14:42.350Z,10.10
2022-09-14T12:20:31.364Z,10.00
2022-09-14T12:23:15.751Z,10.00
2022-09-14T12:26:08.608Z,10.00
2022-09-14T12:28:41.401Z,10.00
2022-09-14T12:31:22.895Z,10.00
2022-09-14T12:34:26.378Z,10.00
2022-09-14T12:36:59.474Z,10.00
2022-09-14T12:39:38.649Z,10.00
2022-09-14T12:42:33.808Z,10.00
2022-09-14T12:45:41.859Z,10.00
2022-09-14T12:48:12.329Z,10.00
2022-09-14T12:50:43.574Z,10.00
2022-09-14T12:53:30.854Z,9.90
2022-09-14T12:56:07.608Z,9.90
2022-09-14T12:59:06.191Z,9.90
2022-09-14T13:01:51.081Z,9.90
2022-09-14T13:04:34.301Z,10.00
2022-09-14T13:07:14.918Z,10.00
2022-09-14T13:09:51.378Z,10.00
2022-09-14T13:12:36.253Z,10.00
2022-09-14T13:15:10.205Z,10.00
2022-09-14T13:17:57.411Z,10.10
2022-09-14T13:20:29.061Z,10.00
2022-09-14T13:22:59.798Z,10.10
2022-09-14T13:25:45.126Z,10.10
2022-09-14T13:28:21.300Z,10.10
2022-09-14T13:31:03.146Z,10.20
2022-09-14T13:33:33.579Z,10.20
2022-09-14T13:36:06.503Z,10.20
2022-09-14T13:38:39.270Z,10.20
2022-09-14T13:41:21.154Z,10.10
2022-09-14T13:43:55.817Z,10.10
2022-09-14T13:46:28.737Z,10.00
2022-09-14T13:49:00.085Z,10.00
2022-09-14T13:51:31.495Z,9.90
2022-09-14T13:54:19.078Z,9.90
2022-09-14T13:56:49.026Z,9.90
2022-09-14T13:59:23.164Z,9.90
2022-09-14T14:02:02.595Z,9.80
2022-09-14T14:04:39.216Z,9.80
2022-09-14T14:07:27.679Z,9.80
2022-09-14T14:10:00.328Z,9.80
2022-09-14T14:12:43.274Z,9.80
2022-09-14T14:18:04.171Z,9.80
2022-09-14T14:20:39.428Z,9.80
2022-09-14T14:23:15.897Z,9.80
2022-09-14T14:25:56.092Z,9.80
2022-09-14T14:28:29.752Z,9.80
2022-09-14T14:31:13.245Z,9.80
2022-09-14T14:33:55.676Z,9.80
2022-09-14T14:36:25.930Z,9.80
2022-09-14T14:38:56.377Z,9.80
2022-09-14T14:41:26.615Z,9.80
2022-09-14T14:43:57.744Z,9.80
2022-09-14T14:46:28.336Z,9.80
2022-09-14T14:48:58.634Z,9.80
2022-09-14T14:51:28.860Z,9.80
2022-09-14T14:53:59.079Z,9.80
2022-09-14T14:56:29.896Z,9.80
2022-09-14T14:59:02.373Z,9.80
2022-09-14T15:01:33.011Z,9.80
2022-09-14T15:04:03.436Z,9.80
2022-09-14T15:06:34.073Z,9.70
2022-09-14T15:09:05.241Z,9.70
2022-09-14T15:11:37.797Z,9.70
2022-09-14T15:14:09.317Z,9.80
2022-09-14T15:16:39.689Z,9.70
2022-09-14T15:19:13.559Z,9.70
2022-09-14T15:21:44.993Z,9.70
2022-09-14T15:24:15.343Z,9.80
2022-09-14T15:26:45.768Z,9.70
2022-09-14T15:29:16.702Z,9.70
2022-09-14T15:31:47.742Z,9.70
2022-09-14T15:34:20.937Z,9.70
2022-09-14T15:40:17.897Z,9.60
2022-09-14T15:43:10.604Z,9.50
2022-09-14T15:45:50.949Z,9.50
2022-09-14T15:48:34.599Z,9.50
2022-09-14T15:51:13.652Z,9.50
2022-09-14T15:53:43.946Z,9.50
2022-09-14T15:56:21.990Z,9.40
2022-09-14T15:58:53.477Z,9.40
2022-09-14T16:01:24.027Z,9.40
2022-09-14T16:04:07.271Z,9.40
2022-09-14T16:06:48.046Z,9.40
2022-09-14T16:09:32.191Z,9.30
2022-09-14T16:12:02.983Z,9.30
2022-09-14T16:14:34.646Z,9.30
2022-09-14T16:17:08.711Z,9.30
2022-09-14T16:19:40.833Z,9.30
2022-09-14T16:22:12.595Z,9.30
2022-09-14T16:24:43.412Z,9.30
2022-09-14T16:27:14.045Z,9.20
2022-09-14T16:29:44.613Z,9.20
2022-09-14T16:32:14.937Z,9.20
2022-09-14T16:34:45.279Z,9.20
2022-09-14T16:37:18.095Z,9.20
2022-09-14T16:39:52.138Z,9.20
2022-09-14T16:42:22.732Z,9.20
2022-09-14T16:44:53.498Z,9.20
2022-09-14T16:47:23.777Z,9.20
2022-09-14T16:49:54.349Z,9.20
2022-09-14T16:52:25.107Z,9.20
2022-09-14T16:55:18.173Z,9.20
2022-09-14T16:57:57.193Z,9.10
2022-09-14T17:00:27.549Z,9.10
2022-09-14T17:02:57.837Z,9.10
2022-09-14T17:05:28.174Z,9.10
2022-09-14T17:07:58.461Z,9.10
2022-09-14T17:10:30.259Z,9.00
2022-09-14T17:13:00.600Z,9.00
2022-09-14T17:15:32.145Z,9.00
2022-09-14T17:18:02.498Z,9.00
2022-09-14T17:20:32.893Z,9.00
2022-09-14T17:23:18.990Z,9.00
2022-09-14T17:26:14.425Z,9.10
2022-09-14T17:28:54.465Z,9.10
2022-09-14T17:31:27.945Z,9.10
2022-09-14T17:34:00.418Z,9.10
2022-09-14T17:36:32.448Z,9.10
2022-09-14T17:39:11.341Z,9.10
2022-09-14T17:41:44.650Z,9.10
2022-09-14T17:44:17.738Z,9.10
2022-09-14T17:46:52.715Z,9.10
2022-09-14T17:49:30.768Z,9.10
2022-09-14T17:52:05.919Z,9.10
2022-09-14T17:54:37.835Z,9.10
2022-09-14T17:57:08.499Z,9.10
2022-09-14T17:59:39.056Z,9.20
2022-09-14T18:02:09.970Z,9.10
2022-09-14T18:04:42.488Z,9.10
2022-09-14T18:07:18.869Z,9.10
2022-09-14T18:09:49.334Z,9.10
2022-09-14T18:12:21.515Z,9.20
2022-09-14T18:14:52.012Z,9.20
2022-09-14T18:17:22.688Z,9.20
2022-09-14T18:19:57.203Z,9.20
2022-09-14T18:22:28.758Z,9.20
2022-09-14T18:25:00.565Z,9.20
2022-09-14T18:27:31.411Z,9.20
2022-09-14T18:30:06.472Z,9.20
2022-09-14T18:32:38.146Z,9.20
2022-09-14T18:35:09.595Z,9.20
2022-09-14T18:37:40.090Z,9.20
2022-09-14T18:40:10.960Z,9.20
2022-09-14T18:42:41.342Z,9.20
2022-09-14T18:45:11.977Z,9.20
2022-09-14T18:47:43.154Z,9.20
2022-09-14T18:50:29.452Z,9.10
2022-09-14T18:53:31.083Z,9.10
2022-09-14T18:56:44.907Z,9.10
2022-09-14T18:59:34.347Z,9.20
2022-09-14T19:05:40.085Z,9.20
2022-09-14T19:08:25.812Z,9.10
2022-09-14T19:11:05.064Z,9.10
2022-09-14T19:23:03.934Z,9.10
2022-09-14T19:29:05.771Z,9.10
2022-09-14T19:32:26.296Z,9.10
2022-09-14T19:35:11.804Z,9.00
2022-09-14T19:41:06.546Z,9.10
2022-09-14T19:46:45.724Z,9.10
2022-09-14T19:49:34.671Z,9.10
2022-09-14T19:52:09.488Z,9.10
2022-09-14T19:54:45.600Z,9.10
2022-09-14T19:57:20.692Z,9.10
2022-09-14T19:59:51.007Z,9.10
2022-09-14T20:02:23.302Z,9.10
2022-09-14T20:04:54.869Z,9.10
2022-09-14T20:07:25.354Z,9.10
2022-09-14T20:09:55.803Z,9.10
2022-09-14T20:12:26.149Z,9.10
2022-09-14T20:14:56.401Z,9.10
2022-09-14T20:17:26.672Z,9.10
2022-09-14T20:19:57.189Z,9.10
2022-09-14T20:22:27.565Z,9.10
2022-09-14T20:24:58.399Z,9.20
2022-09-14T20:27:28.678Z,9.10
2022-09-14T20:29:59.064Z,9.10
2022-09-14T20:32:29.729Z,9.10
2022-09-14T20:35:00.018Z,9.20
2022-09-14T20:37:31.407Z,9.20
2022-09-14T20:40:01.677Z,9.20
2022-09-14T20:42:32.361Z,9.20
2022-09-14T20:45:02.748Z,9.20
2022-09-14T20:47:33.379Z,9.20
2022-09-14T20:50:04.163Z,9.30
2022-09-14T20:52:34.373Z,9.20
2022-09-14T20:55:04.683Z,9.30
2022-09-14T20:57:35.608Z,9.30
2022-09-14T21:00:06.275Z,9.30
2022-09-14T21:02:37.730Z,9.20
2022-09-14T21:05:08.233Z,9.20
2022-09-14T21:07:38.448Z,9.30
2022-09-14T21:10:09.831Z,9.30
2022-09-14T21:12:47.594Z,9.30
2022-09-14T21:15:18.246Z,9.30
2022-09-14T21:17:48.534Z,9.30
2022-09-14T21:20:18.990Z,9.30
2022-09-14T21:22:49.644Z,9.40
2022-09-14T21:25:19.905Z,9.40
2022-09-14T21:27:50.120Z,9.40
2022-09-14T21:30:20.549Z,9.40
2022-09-14T21:32:53.350Z,9.50
2022-09-14T21:35:23.824Z,9.50
2022-09-14T21:37:54.284Z,9.60
2022-09-14T21:40:27.147Z,9.70
2022-09-14T21:42:58.926Z,9.70
2022-09-14T21:45:29.460Z,9.80
2022-09-14T21:47:59.874Z,9.80
2022-09-14T21:50:30.159Z,9.90
2022-09-14T21:53:00.721Z,9.90
2022-09-14T21:55:31.022Z,9.90
2022-09-14T21:58:01.445Z,9.90
2022-09-14T22:00:31.724Z,9.90
2022-09-14T22:03:02.191Z,10.00
2022-09-14T22:05:32.469Z,10.00
2022-09-14T22:08:02.897Z,10.00
2022-09-14T22:10:33.234Z,10.00
2022-09-14T22:13:05.994Z,10.10
2022-09-14T22:15:37.045Z,10.20
2022-09-14T22:18:09.139Z,10.20
2022-09-14T22:20:40.032Z,10.30
2022-09-14T22:23:10.939Z,10.40
2022-09-14T22:25:43.333Z,10.40
2022-09-14T22:28:13.581Z,10.60
2022-09-14T22:30:48.600Z,10.70
2022-09-14T22:33:19.022Z,10.80
2022-09-14T22:36:00.745Z,10.80
2022-09-14T22:38:37.031Z,10.80
2022-09-14T22:41:14.253Z,10.90
2022-09-14T22:43:44.839Z,11.00
2022-09-14T22:46:15.218Z,11.10
2022-09-14T22:48:46.039Z,11.20
2022-09-14T22:51:19.820Z,11.30
2022-09-14T22:53:51.934Z,11.40
2022-09-14T22:56:41.851Z,11.40
2022-09-14T22:59:14.058Z,11.50
2022-09-14T23:01:46.028Z,11.50
2022-09-14T23:04:17.418Z,11.50
2022-09-14T23:06:49.460Z,11.50
2022-09-14T23:09:23.208Z,11.60
2022-09-14T23:11:53.571Z,11.70
2022-09-14T23:14:23.951Z,11.80
2022-09-14T23:16:55.504Z,11.90
2022-09-14T23:19:25.902Z,12.10
2022-09-14T23:21:56.394Z,12.10
2022-09-14T23:24:26.944Z,12.20
2022-09-14T23:26:57.352Z,12.20
2022-09-14T23:29:27.695Z,12.20
2022-09-14T23:31:58.136Z,12.20
2022-09-14T23:34:28.530Z,12.20
2022-09-14T23:36:59.115Z,12.20
2022-09-14T23:39:29.612Z,12.20
2022-09-14T23:42:00.726Z,12.10
2022-09-14T23:44:31.355Z,12.20
2022-09-14T23:47:03.075Z,12.20
2022-09-14T23:49:33.379Z,12.30
2022-09-14T23:52:05.338Z,12.30
2022-09-14T23:54:37.095Z,12.40
2022-09-14T23:57:07.857Z,12.40
2022-09-14T23:59:38.160Z,12.40
